Terminal Aerodrome Forecast
Issued by NWS Twin Cities, MN

Home | Current Version | Previous Version | Text Only | Print | Product List | Glossary Off
Versions: 1 2 3 4 5 6 7 8 9 10 11 12 13 14 15 16 17 18 19 20 21 22 23 24 25 26

000
FTUS43 KMPX 212000 AAA
TAFMSP
TAF AMD
KMSP 212052Z 2121/2224 30019G26KT P6SM SKC
     FM220200 32012KT P6SM SKC
     FM220600 33007KT P6SM SKC
     FM221500 34008KT P6SM FEW250=

USA.gov is the U.S. government's official web portal to all federal, state and local government web resources and services.